Myrtle Beach, SC (29572)

3:13 PM EST on December 06, 2016 (GMT -0500)
Green Lake | | Change Station

Elev 39 ft 33.78 °N, 78.78 °W | Updated 6 seconds ago

Overcast
Overcast
63.0 °F
Feels Like 63.0 °F
N
0.0
Wind Variable Wind from NNE
Gusts 0.0 mph

Today
High -- | Low -- °F
--% Chance of Precip.
Yesterday
High -- | Low -- °F
Precip. -- in
Pressure 29.64 in
Visibility 2.5 miles
Clouds Overcast 600 ft
Dew Point 62 °F
Humidity 98%
Rainfall 1.15 in
Snow Depth Not available.
7:06 AM 5:06 PM
Waxing Crescent, 44% visible
METAR KCRE 061953Z 22004KT 2 1/2SM BR OVC006 17/17 A2964 RMK AO1 SLP037 T01720167 $
Pressure 29.64 in
Visibility 2.5 miles
Clouds Overcast 600 ft
Dew Point 62 °F
Humidity 98%
Rainfall 1.15 in
Snow Depth Not available.
7:06 AM 5:06 PM
Waxing Crescent, 44% visible
METAR KCRE 061953Z 22004KT 2 1/2SM BR OVC006 17/17 A2964 RMK AO1 SLP037 T01720167 $

10-Day Weather Forecast

Almanac

Astronomy

Dec. 06, 2016 Rise Set
Actual Time
Civil Twilight
Nautical Twilight
Astronomical Twilight
Moon
Length of Visible Light
Length of Day
Tomorrow will be .
, % of the Moon is Illuminated

Today's Extremes

State Highs State Lows

Community

WunderPhotos

Upload Photos

1,956,022 photos uploaded!

WunderBlog® & News

Nearby

Air Quality

  Air Quality AQ Index Pollutant
Not available.

Snow Depth

Station Depth Elevation

Earthquake Activity

City Distance Mag. Time & Date
Minimum magnitude displayed is 2.5.

Coastal Water Temperatures

Place Temperature

Stations

Nearby Weather Stations

Station Location Temp. Windchill Dew Point Humidity Wind Precip. Elev Updated Type
                   

Watches & Warnings

There are currently no watches in effect.